sensor_id;sensor_type;location;lat;lon;timestamp;temperature;humidity
20463;DHT22;10390;53.566;9.980;2022-11-15T00:00:51;20.40;1.00
20463;DHT22;10390;53.566;9.980;2022-11-15T00:03:20;20.30;1.00
20463;DHT22;10390;53.566;9.980;2022-11-15T00:05:48;20.30;1.00
20463;DHT22;10390;53.566;9.980;2022-11-15T00:08:14;20.30;1.00
20463;DHT22;10390;53.566;9.980;2022-11-15T00:10:40;20.30;1.00
20463;DHT22;10390;53.566;9.980;2022-11-15T00:13:11;20.30;1.00
20463;DHT22;10390;53.566;9.980;2022-11-15T00:15:39;20.30;1.00
20463;DHT22;10390;53.566;9.980;2022-11-15T00:18:10;20.30;1.00
20463;DHT22;10390;53.566;9.980;2022-11-15T00:20:37;20.30;1.00
20463;DHT22;10390;53.566;9.980;2022-11-15T00:23:04;20.30;1.00
20463;DHT22;10390;53.566;9.980;2022-11-15T00:25:30;20.20;1.00
20463;DHT22;10390;53.566;9.980;2022-11-15T00:27:57;20.30;1.00
20463;DHT22;10390;53.566;9.980;2022-11-15T00:30:23;20.20;1.00
20463;DHT22;10390;53.566;9.980;2022-11-15T00:32:49;20.20;1.00
20463;DHT22;10390;53.566;9.980;2022-11-15T00:35:15;20.20;1.00
20463;DHT22;10390;53.566;9.980;2022-11-15T00:37:41;20.20;1.00
20463;DHT22;10390;53.566;9.980;2022-11-15T00:40:09;20.20;1.00
20463;DHT22;10390;53.566;9.980;2022-11-15T00:42:35;20.20;1.00
20463;DHT22;10390;53.566;9.980;2022-11-15T00:45:01;20.20;1.00
20463;DHT22;10390;53.566;9.980;2022-11-15T00:47:27;20.20;1.00
20463;DHT22;10390;53.566;9.980;2022-11-15T00:49:53;20.20;1.00
20463;DHT22;10390;53.566;9.980;2022-11-15T00:52:18;20.20;1.00
20463;DHT22;10390;53.566;9.980;2022-11-15T00:54:44;20.20;1.00
20463;DHT22;10390;53.566;9.980;2022-11-15T00:57:10;20.20;1.00
20463;DHT22;10390;53.566;9.980;2022-11-15T00:59:36;20.10;1.00
20463;DHT22;10390;53.566;9.980;2022-11-15T01:02:01;20.20;1.00
20463;DHT22;10390;53.566;9.980;2022-11-15T01:04:27;20.20;1.00
20463;DHT22;10390;53.566;9.980;2022-11-15T01:06:53;20.20;1.00
20463;DHT22;10390;53.566;9.980;2022-11-15T01:09:19;20.10;1.00
20463;DHT22;10390;53.566;9.980;2022-11-15T01:11:45;20.10;1.00
20463;DHT22;10390;53.566;9.980;2022-11-15T01:14:11;20.10;1.00
20463;DHT22;10390;53.566;9.980;2022-11-15T01:16:36;20.10;1.00
20463;DHT22;10390;53.566;9.980;2022-11-15T01:19:02;20.10;1.00
20463;DHT22;10390;53.566;9.980;2022-11-15T01:21:28;20.10;1.00
20463;DHT22;10390;53.566;9.980;2022-11-15T01:23:55;20.10;1.00
20463;DHT22;10390;53.566;9.980;2022-11-15T01:26:22;20.10;1.00
20463;DHT22;10390;53.566;9.980;2022-11-15T01:28:49;20.10;1.00
20463;DHT22;10390;53.566;9.980;2022-11-15T01:31:19;20.10;1.00
20463;DHT22;10390;53.566;9.980;2022-11-15T01:33:46;20.10;1.00
20463;DHT22;10390;53.566;9.980;2022-11-15T01:36:19;20.10;1.00
20463;DHT22;10390;53.566;9.980;2022-11-15T01:38:57;20.10;1.00
20463;DHT22;10390;53.566;9.980;2022-11-15T01:41:28;20.10;1.00
20463;DHT22;10390;53.566;9.980;2022-11-15T01:47:26;20.10;1.00
20463;DHT22;10390;53.566;9.980;2022-11-15T01:50:15;20.10;1.00
20463;DHT22;10390;53.566;9.980;2022-11-15T01:52:43;20.10;1.00
20463;DHT22;10390;53.566;9.980;2022-11-15T01:55:15;20.00;1.00
20463;DHT22;10390;53.566;9.980;2022-11-15T01:57:46;20.10;1.00
20463;DHT22;10390;53.566;9.980;2022-11-15T02:00:14;20.00;1.00
20463;DHT22;10390;53.566;9.980;2022-11-15T02:02:40;20.00;1.00
20463;DHT22;10390;53.566;9.980;2022-11-15T02:05:06;20.00;1.00
20463;DHT22;10390;53.566;9.980;2022-11-15T02:07:35;20.00;1.00
20463;DHT22;10390;53.566;9.980;2022-11-15T02:10:12;20.00;1.00
20463;DHT22;10390;53.566;9.980;2022-11-15T02:12:40;20.00;1.00
20463;DHT22;10390;53.566;9.980;2022-11-15T02:15:07;20.00;1.00
20463;DHT22;10390;53.566;9.980;2022-11-15T02:23:49;20.00;1.00
20463;DHT22;10390;53.566;9.980;2022-11-15T02:32:52;20.00;1.00
20463;DHT22;10390;53.566;9.980;2022-11-15T02:38:17;20.00;1.00
20463;DHT22;10390;53.566;9.980;2022-11-15T02:41:28;20.00;1.00
20463;DHT22;10390;53.566;9.980;2022-11-15T02:44:17;20.00;1.00
20463;DHT22;10390;53.566;9.980;2022-11-15T02:46:57;19.90;1.00
20463;DHT22;10390;53.566;9.980;2022-11-15T02:49:42;19.90;1.00
20463;DHT22;10390;53.566;9.980;2022-11-15T02:52:17;19.90;1.00
20463;DHT22;10390;53.566;9.980;2022-11-15T02:54:56;19.90;1.00
20463;DHT22;10390;53.566;9.980;2022-11-15T03:00:35;19.90;1.00
20463;DHT22;10390;53.566;9.980;2022-11-15T03:06:21;19.90;1.00
20463;DHT22;10390;53.566;9.980;2022-11-15T03:12:30;19.90;1.00
20463;DHT22;10390;53.566;9.980;2022-11-15T03:15:23;19.90;1.00
20463;DHT22;10390;53.566;9.980;2022-11-15T03:18:00;19.90;1.00
20463;DHT22;10390;53.566;9.980;2022-11-15T03:20:31;19.90;1.00
20463;DHT22;10390;53.566;9.980;2022-11-15T03:23:03;19.90;1.00
20463;DHT22;10390;53.566;9.980;2022-11-15T03:25:32;19.90;1.00
20463;DHT22;10390;53.566;9.980;2022-11-15T03:28:02;19.90;1.00
20463;DHT22;10390;53.566;9.980;2022-11-15T03:30:31;19.90;1.00
20463;DHT22;10390;53.566;9.980;2022-11-15T03:33:00;19.90;1.00
20463;DHT22;10390;53.566;9.980;2022-11-15T03:35:31;19.90;1.00
20463;DHT22;10390;53.566;9.980;2022-11-15T03:38:25;19.90;1.00
20463;DHT22;10390;53.566;9.980;2022-11-15T03:40:59;19.90;1.00
20463;DHT22;10390;53.566;9.980;2022-11-15T03:46:58;19.90;1.00
20463;DHT22;10390;53.566;9.980;2022-11-15T03:49:35;19.90;1.00
20463;DHT22;10390;53.566;9.980;2022-11-15T03:52:04;19.90;1.00
20463;DHT22;10390;53.566;9.980;2022-11-15T03:54:30;19.90;1.00
20463;DHT22;10390;53.566;9.980;2022-11-15T03:56:56;19.90;1.00
20463;DHT22;10390;53.566;9.980;2022-11-15T03:59:22;19.90;1.00
20463;DHT22;10390;53.566;9.980;2022-11-15T04:01:48;19.90;1.00
20463;DHT22;10390;53.566;9.980;2022-11-15T04:04:14;19.90;1.00
20463;DHT22;10390;53.566;9.980;2022-11-15T04:06:39;19.90;1.00
20463;DHT22;10390;53.566;9.980;2022-11-15T04:09:05;19.80;1.00
20463;DHT22;10390;53.566;9.980;2022-11-15T04:11:31;19.90;1.00
20463;DHT22;10390;53.566;9.980;2022-11-15T04:13:57;19.90;1.00
20463;DHT22;10390;53.566;9.980;2022-11-15T04:16:22;19.90;1.00
20463;DHT22;10390;53.566;9.980;2022-11-15T04:18:48;19.90;1.00
20463;DHT22;10390;53.566;9.980;2022-11-15T04:21:34;19.90;1.00
20463;DHT22;10390;53.566;9.980;2022-11-15T04:24:18;19.80;1.00
20463;DHT22;10390;53.566;9.980;2022-11-15T04:26:44;19.90;1.00
20463;DHT22;10390;53.566;9.980;2022-11-15T04:29:09;19.90;1.00
20463;DHT22;10390;53.566;9.980;2022-11-15T04:31:53;19.80;1.00
20463;DHT22;10390;53.566;9.980;2022-11-15T04:34:19;19.90;1.00
20463;DHT22;10390;53.566;9.980;2022-11-15T04:36:45;19.90;1.00
20463;DHT22;10390;53.566;9.980;2022-11-15T04:39:29;19.90;1.00
20463;DHT22;10390;53.566;9.980;2022-11-15T04:41:55;19.80;1.00
20463;DHT22;10390;53.566;9.980;2022-11-15T04:44:20;19.80;1.00
20463;DHT22;10390;53.566;9.980;2022-11-15T04:46:46;19.80;1.00
20463;DHT22;10390;53.566;9.980;2022-11-15T04:49:12;19.80;1.00
20463;DHT22;10390;53.566;9.980;2022-11-15T04:51:38;19.80;1.00
20463;DHT22;10390;53.566;9.980;2022-11-15T04:54:04;19.80;1.00
20463;DHT22;10390;53.566;9.980;2022-11-15T04:56:30;19.80;1.00
20463;DHT22;10390;53.566;9.980;2022-11-15T04:58:55;19.80;1.00
20463;DHT22;10390;53.566;9.980;2022-11-15T05:01:21;19.80;1.00
20463;DHT22;10390;53.566;9.980;2022-11-15T05:03:47;19.80;1.00
20463;DHT22;10390;53.566;9.980;2022-11-15T05:06:31;19.80;1.00
20463;DHT22;10390;53.566;9.980;2022-11-15T05:08:57;19.80;1.00
20463;DHT22;10390;53.566;9.980;2022-11-15T05:11:23;19.80;1.00
20463;DHT22;10390;53.566;9.980;2022-11-15T05:13:49;19.80;1.00
20463;DHT22;10390;53.566;9.980;2022-11-15T05:16:15;19.80;1.00
20463;DHT22;10390;53.566;9.980;2022-11-15T05:18:41;19.80;1.00
20463;DHT22;10390;53.566;9.980;2022-11-15T05:21:10;19.80;1.00
20463;DHT22;10390;53.566;9.980;2022-11-15T05:23:38;19.80;1.00
20463;DHT22;10390;53.566;9.980;2022-11-15T05:26:07;19.80;1.00
20463;DHT22;10390;53.566;9.980;2022-11-15T05:28:34;19.80;1.00
20463;DHT22;10390;53.566;9.980;2022-11-15T05:31:11;19.80;1.00
20463;DHT22;10390;53.566;9.980;2022-11-15T05:33:40;19.80;1.00
20463;DHT22;10390;53.566;9.980;2022-11-15T05:38:50;19.80;1.00
20463;DHT22;10390;53.566;9.980;2022-11-15T05:41:22;19.80;1.00
20463;DHT22;10390;53.566;9.980;2022-11-15T05:44:04;19.80;1.00
20463;DHT22;10390;53.566;9.980;2022-11-15T05:46:33;19.80;1.00
20463;DHT22;10390;53.566;9.980;2022-11-15T05:48:59;19.80;1.00
20463;DHT22;10390;53.566;9.980;2022-11-15T05:51:27;19.80;1.00
20463;DHT22;10390;53.566;9.980;2022-11-15T05:53:56;19.70;1.00
20463;DHT22;10390;53.566;9.980;2022-11-15T05:56:24;19.80;1.00
20463;DHT22;10390;53.566;9.980;2022-11-15T05:58:53;19.80;1.00
20463;DHT22;10390;53.566;9.980;2022-11-15T06:01:19;19.80;1.00
20463;DHT22;10390;53.566;9.980;2022-11-15T06:03:45;19.80;1.00
20463;DHT22;10390;53.566;9.980;2022-11-15T06:06:11;19.80;1.00
20463;DHT22;10390;53.566;9.980;2022-11-15T06:08:36;19.80;1.00
20463;DHT22;10390;53.566;9.980;2022-11-15T06:11:06;19.70;1.00
20463;DHT22;10390;53.566;9.980;2022-11-15T06:13:33;19.80;1.00
20463;DHT22;10390;53.566;9.980;2022-11-15T06:15:59;19.80;1.00
20463;DHT22;10390;53.566;9.980;2022-11-15T06:18:26;19.80;1.00
20463;DHT22;10390;53.566;9.980;2022-11-15T06:20:52;19.80;1.00
20463;DHT22;10390;53.566;9.980;2022-11-15T06:23:17;19.80;1.00
20463;DHT22;10390;53.566;9.980;2022-11-15T06:25:43;19.80;1.00
20463;DHT22;10390;53.566;9.980;2022-11-15T06:28:09;19.80;1.00
20463;DHT22;10390;53.566;9.980;2022-11-15T06:30:35;19.70;1.00
20463;DHT22;10390;53.566;9.980;2022-11-15T06:33:04;19.80;1.00
20463;DHT22;10390;53.566;9.980;2022-11-15T06:35:32;19.70;1.00
20463;DHT22;10390;53.566;9.980;2022-11-15T06:38:07;19.80;1.00
20463;DHT22;10390;53.566;9.980;2022-11-15T06:40:35;19.80;1.00
20463;DHT22;10390;53.566;9.980;2022-11-15T06:43:03;19.70;1.00
20463;DHT22;10390;53.566;9.980;2022-11-15T06:45:29;19.80;1.00
20463;DHT22;10390;53.566;9.980;2022-11-15T06:47:55;19.80;1.00
20463;DHT22;10390;53.566;9.980;2022-11-15T06:50:21;19.80;1.00
20463;DHT22;10390;53.566;9.980;2022-11-15T06:52:47;19.80;1.00
20463;DHT22;10390;53.566;9.980;2022-11-15T06:55:13;19.80;1.00
20463;DHT22;10390;53.566;9.980;2022-11-15T06:57:47;19.70;1.00
20463;DHT22;10390;53.566;9.980;2022-11-15T07:00:14;19.80;1.00
20463;DHT22;10390;53.566;9.980;2022-11-15T07:02:40;19.80;1.00
20463;DHT22;10390;53.566;9.980;2022-11-15T07:05:06;19.80;1.00
20463;DHT22;10390;53.566;9.980;2022-11-15T07:07:32;19.80;1.00
20463;DHT22;10390;53.566;9.980;2022-11-15T07:09:58;19.70;1.00
20463;DHT22;10390;53.566;9.980;2022-11-15T07:12:23;19.80;1.00
20463;DHT22;10390;53.566;9.980;2022-11-15T07:14:49;19.80;1.00
20463;DHT22;10390;53.566;9.980;2022-11-15T07:17:15;19.80;1.00
20463;DHT22;10390;53.566;9.980;2022-11-15T07:19:41;19.80;1.00
20463;DHT22;10390;53.566;9.980;2022-11-15T07:22:07;19.70;1.00
20463;DHT22;10390;53.566;9.980;2022-11-15T07:24:32;19.70;1.00
20463;DHT22;10390;53.566;9.980;2022-11-15T07:26:58;19.70;1.00
20463;DHT22;10390;53.566;9.980;2022-11-15T07:29:24;19.70;1.00
20463;DHT22;10390;53.566;9.980;2022-11-15T07:31:50;19.70;1.00
20463;DHT22;10390;53.566;9.980;2022-11-15T07:34:16;19.70;1.00
20463;DHT22;10390;53.566;9.980;2022-11-15T07:36:42;19.70;1.00
20463;DHT22;10390;53.566;9.980;2022-11-15T07:39:08;19.70;1.00
20463;DHT22;10390;53.566;9.980;2022-11-15T07:41:33;19.70;1.00
20463;DHT22;10390;53.566;9.980;2022-11-15T07:44:00;19.70;1.00
20463;DHT22;10390;53.566;9.980;2022-11-15T07:46:27;19.70;1.00
20463;DHT22;10390;53.566;9.980;2022-11-15T07:48:52;19.70;1.00
20463;DHT22;10390;53.566;9.980;2022-11-15T07:51:19;19.70;1.00
20463;DHT22;10390;53.566;9.980;2022-11-15T07:53:45;19.70;1.00
20463;DHT22;10390;53.566;9.980;2022-11-15T07:56:11;19.70;1.00
20463;DHT22;10390;53.566;9.980;2022-11-15T07:58:37;19.70;1.00
20463;DHT22;10390;53.566;9.980;2022-11-15T08:01:04;19.70;1.00
20463;DHT22;10390;53.566;9.980;2022-11-15T08:03:31;19.70;1.00
20463;DHT22;10390;53.566;9.980;2022-11-15T08:05:57;19.70;1.00
20463;DHT22;10390;53.566;9.980;2022-11-15T08:08:23;19.70;1.00
20463;DHT22;10390;53.566;9.980;2022-11-15T08:10:49;19.70;1.00
20463;DHT22;10390;53.566;9.980;2022-11-15T08:13:15;19.70;1.00
20463;DHT22;10390;53.566;9.980;2022-11-15T08:15:41;19.70;1.00
20463;DHT22;10390;53.566;9.980;2022-11-15T08:18:11;19.70;1.00
20463;DHT22;10390;53.566;9.980;2022-11-15T08:20:39;19.70;1.00
20463;DHT22;10390;53.566;9.980;2022-11-15T08:23:06;19.70;1.00
20463;DHT22;10390;53.566;9.980;2022-11-15T08:25:34;19.60;1.00
20463;DHT22;10390;53.566;9.980;2022-11-15T08:28:04;19.70;1.00
20463;DHT22;10390;53.566;9.980;2022-11-15T08:30:35;19.60;1.00
20463;DHT22;10390;53.566;9.980;2022-11-15T08:33:02;19.70;1.00
20463;DHT22;10390;53.566;9.980;2022-11-15T08:35:28;19.70;1.00
20463;DHT22;10390;53.566;9.980;2022-11-15T08:37:54;19.70;1.00
20463;DHT22;10390;53.566;9.980;2022-11-15T08:40:20;19.70;1.00
20463;DHT22;10390;53.566;9.980;2022-11-15T08:42:47;19.60;1.00
20463;DHT22;10390;53.566;9.980;2022-11-15T08:45:13;19.70;1.00
20463;DHT22;10390;53.566;9.980;2022-11-15T08:47:39;19.70;1.00
20463;DHT22;10390;53.566;9.980;2022-11-15T08:50:05;19.70;1.00
20463;DHT22;10390;53.566;9.980;2022-11-15T08:52:31;19.70;1.00
20463;DHT22;10390;53.566;9.980;2022-11-15T08:54:57;19.70;1.00
20463;DHT22;10390;53.566;9.980;2022-11-15T08:57:23;19.70;1.00
20463;DHT22;10390;53.566;9.980;2022-11-15T08:59:49;19.70;1.00
20463;DHT22;10390;53.566;9.980;2022-11-15T09:02:15;19.60;1.00
20463;DHT22;10390;53.566;9.980;2022-11-15T09:04:42;19.70;1.00
20463;DHT22;10390;53.566;9.980;2022-11-15T09:07:09;19.60;1.00
20463;DHT22;10390;53.566;9.980;2022-11-15T09:09:36;19.70;1.00
20463;DHT22;10390;53.566;9.980;2022-11-15T09:12:02;19.60;1.00
20463;DHT22;10390;53.566;9.980;2022-11-15T09:14:29;19.70;1.00
20463;DHT22;10390;53.566;9.980;2022-11-15T09:16:54;19.70;1.00
20463;DHT22;10390;53.566;9.980;2022-11-15T09:19:20;19.60;1.00
20463;DHT22;10390;53.566;9.980;2022-11-15T09:21:46;19.60;1.00
20463;DHT22;10390;53.566;9.980;2022-11-15T09:24:12;19.60;1.00
20463;DHT22;10390;53.566;9.980;2022-11-15T09:26:39;19.60;1.00
20463;DHT22;10390;53.566;9.980;2022-11-15T09:29:05;19.60;1.00
20463;DHT22;10390;53.566;9.980;2022-11-15T09:31:31;19.60;1.00
20463;DHT22;10390;53.566;9.980;2022-11-15T09:33:56;19.60;1.00
20463;DHT22;10390;53.566;9.980;2022-11-15T09:36:22;19.60;1.00
20463;DHT22;10390;53.566;9.980;2022-11-15T09:38:48;19.60;1.00
20463;DHT22;10390;53.566;9.980;2022-11-15T09:49:08;19.70;1.00
20463;DHT22;10390;53.566;9.980;2022-11-15T09:51:40;19.70;1.00
20463;DHT22;10390;53.566;9.980;2022-11-15T09:54:34;19.60;1.00
20463;DHT22;10390;53.566;9.980;2022-11-15T09:57:12;19.60;1.00
20463;DHT22;10390;53.566;9.980;2022-11-15T10:05:21;19.70;1.00
20463;DHT22;10390;53.566;9.980;2022-11-15T10:11:00;19.60;1.00
20463;DHT22;10390;53.566;9.980;2022-11-15T10:13:33;19.60;1.00
20463;DHT22;10390;53.566;9.980;2022-11-15T10:22:31;19.60;1.00
20463;DHT22;10390;53.566;9.980;2022-11-15T10:25:21;19.60;1.00
20463;DHT22;10390;53.566;9.980;2022-11-15T10:27:54;19.60;1.00
20463;DHT22;10390;53.566;9.980;2022-11-15T10:30:35;19.60;1.00
20463;DHT22;10390;53.566;9.980;2022-11-15T10:36:22;19.60;1.00
20463;DHT22;10390;53.566;9.980;2022-11-15T10:38:53;19.60;1.00
20463;DHT22;10390;53.566;9.980;2022-11-15T10:49:25;19.60;1.00
20463;DHT22;10390;53.566;9.980;2022-11-15T10:52:00;19.60;1.00
20463;DHT22;10390;53.566;9.980;2022-11-15T10:54:42;19.60;1.00
20463;DHT22;10390;53.566;9.980;2022-11-15T10:57:24;19.60;1.00
20463;DHT22;10390;53.566;9.980;2022-11-15T11:00:05;19.60;1.00
20463;DHT22;10390;53.566;9.980;2022-11-15T11:02:40;19.60;1.00
20463;DHT22;10390;53.566;9.980;2022-11-15T11:05:34;19.60;1.00
20463;DHT22;10390;53.566;9.980;2022-11-15T11:10:52;19.60;1.00
20463;DHT22;10390;53.566;9.980;2022-11-15T11:13:27;19.60;1.00
20463;DHT22;10390;53.566;9.980;2022-11-15T11:25:14;19.60;1.00
20463;DHT22;10390;53.566;9.980;2022-11-15T11:34:29;19.60;1.00
20463;DHT22;10390;53.566;9.980;2022-11-15T11:48:58;19.60;1.00
20463;DHT22;10390;53.566;9.980;2022-11-15T11:51:43;19.60;1.00
20463;DHT22;10390;53.566;9.980;2022-11-15T12:02:46;19.60;1.00
20463;DHT22;10390;53.566;9.980;2022-11-15T12:05:31;19.60;1.00
20463;DHT22;10390;53.566;9.980;2022-11-15T12:11:11;19.60;1.00
20463;DHT22;10390;53.566;9.980;2022-11-15T12:13:42;19.60;1.00
20463;DHT22;10390;53.566;9.980;2022-11-15T12:16:28;19.60;1.00
20463;DHT22;10390;53.566;9.980;2022-11-15T12:18:59;19.60;1.00
20463;DHT22;10390;53.566;9.980;2022-11-15T12:21:47;19.60;1.00
20463;DHT22;10390;53.566;9.980;2022-11-15T12:24:38;19.60;1.00
20463;DHT22;10390;53.566;9.980;2022-11-15T12:27:17;19.60;1.00
20463;DHT22;10390;53.566;9.980;2022-11-15T12:30:02;19.60;1.00
20463;DHT22;10390;53.566;9.980;2022-11-15T12:32:37;19.60;1.00
20463;DHT22;10390;53.566;9.980;2022-11-15T12:35:20;19.60;1.00
20463;DHT22;10390;53.566;9.980;2022-11-15T12:37:51;19.60;1.00
20463;DHT22;10390;53.566;9.980;2022-11-15T12:43:32;19.60;1.00
20463;DHT22;10390;53.566;9.980;2022-11-15T12:49:01;19.60;1.00
20463;DHT22;10390;53.566;9.980;2022-11-15T12:59:57;19.60;1.00
20463;DHT22;10390;53.566;9.980;2022-11-15T13:02:33;19.60;1.00
20463;DHT22;10390;53.566;9.980;2022-11-15T13:30:41;19.70;1.00
20463;DHT22;10390;53.566;9.980;2022-11-15T13:33:40;19.70;1.00
20463;DHT22;10390;53.566;9.980;2022-11-15T13:36:27;19.60;1.00
20463;DHT22;10390;53.566;9.980;2022-11-15T13:39:11;19.70;1.00
20463;DHT22;10390;53.566;9.980;2022-11-15T13:41:49;19.70;1.00
20463;DHT22;10390;53.566;9.980;2022-11-15T13:44:25;19.70;1.00
20463;DHT22;10390;53.566;9.980;2022-11-15T13:49:40;19.70;1.00
20463;DHT22;10390;53.566;9.980;2022-11-15T13:52:09;19.70;1.00
20463;DHT22;10390;53.566;9.980;2022-11-15T13:57:59;19.70;1.00
20463;DHT22;10390;53.566;9.980;2022-11-15T14:00:44;19.70;1.00
20463;DHT22;10390;53.566;9.980;2022-11-15T14:03:18;19.70;1.00
20463;DHT22;10390;53.566;9.980;2022-11-15T14:06:09;19.70;1.00
20463;DHT22;10390;53.566;9.980;2022-11-15T14:08:41;19.70;1.00
20463;DHT22;10390;53.566;9.980;2022-11-15T14:13:50;19.70;1.00
20463;DHT22;10390;53.566;9.980;2022-11-15T14:16:36;19.70;1.00
20463;DHT22;10390;53.566;9.980;2022-11-15T14:19:05;19.70;1.00
20463;DHT22;10390;53.566;9.980;2022-11-15T14:21:34;19.70;1.00
20463;DHT22;10390;53.566;9.980;2022-11-15T14:24:17;19.70;1.00
20463;DHT22;10390;53.566;9.980;2022-11-15T14:26:47;19.70;1.00
20463;DHT22;10390;53.566;9.980;2022-11-15T14:29:28;19.70;1.00
20463;DHT22;10390;53.566;9.980;2022-11-15T14:32:12;19.70;1.00
20463;DHT22;10390;53.566;9.980;2022-11-15T14:34:40;19.70;1.00
20463;DHT22;10390;53.566;9.980;2022-11-15T14:37:32;19.70;1.00
20463;DHT22;10390;53.566;9.980;2022-11-15T14:40:01;19.70;1.00
20463;DHT22;10390;53.566;9.980;2022-11-15T14:42:28;19.70;1.00
20463;DHT22;10390;53.566;9.980;2022-11-15T14:44:53;19.70;1.00
20463;DHT22;10390;53.566;9.980;2022-11-15T14:47:19;19.80;1.00
20463;DHT22;10390;53.566;9.980;2022-11-15T14:49:46;19.90;1.00
20463;DHT22;10390;53.566;9.980;2022-11-15T14:52:27;19.90;1.00
20463;DHT22;10390;53.566;9.980;2022-11-15T14:54:55;20.10;1.00
20463;DHT22;10390;53.566;9.980;2022-11-15T14:57:23;20.20;1.00
20463;DHT22;10390;53.566;9.980;2022-11-15T14:59:49;20.30;1.00
20463;DHT22;10390;53.566;9.980;2022-11-15T15:02:26;20.50;1.00
20463;DHT22;10390;53.566;9.980;2022-11-15T15:04:52;20.60;1.00
20463;DHT22;10390;53.566;9.980;2022-11-15T15:07:19;20.80;1.00
20463;DHT22;10390;53.566;9.980;2022-11-15T15:09:45;20.90;1.00
20463;DHT22;10390;53.566;9.980;2022-11-15T15:12:19;21.00;1.00
20463;DHT22;10390;53.566;9.980;2022-11-15T15:14:47;21.20;1.00
20463;DHT22;10390;53.566;9.980;2022-11-15T15:17:15;21.30;1.00
20463;DHT22;10390;53.566;9.980;2022-11-15T15:19:41;21.40;1.00
20463;DHT22;10390;53.566;9.980;2022-11-15T15:22:18;21.60;1.00
20463;DHT22;10390;53.566;9.980;2022-11-15T15:24:45;21.70;1.00
20463;DHT22;10390;53.566;9.980;2022-11-15T15:27:12;21.80;1.00
20463;DHT22;10390;53.566;9.980;2022-11-15T15:29:39;22.00;1.00
20463;DHT22;10390;53.566;9.980;2022-11-15T15:32:05;22.00;1.00
20463;DHT22;10390;53.566;9.980;2022-11-15T15:34:32;22.20;1.00
20463;DHT22;10390;53.566;9.980;2022-11-15T15:37:23;22.20;1.00
20463;DHT22;10390;53.566;9.980;2022-11-15T15:39:54;22.30;1.00
20463;DHT22;10390;53.566;9.980;2022-11-15T15:42:21;22.50;1.00
20463;DHT22;10390;53.566;9.980;2022-11-15T15:44:49;22.50;1.00
20463;DHT22;10390;53.566;9.980;2022-11-15T15:47:21;22.60;1.00
20463;DHT22;10390;53.566;9.980;2022-11-15T15:49:49;22.70;1.00
20463;DHT22;10390;53.566;9.980;2022-11-15T15:52:15;22.80;1.00
20463;DHT22;10390;53.566;9.980;2022-11-15T15:54:42;22.80;1.00
20463;DHT22;10390;53.566;9.980;2022-11-15T15:57:10;22.90;1.00
20463;DHT22;10390;53.566;9.980;2022-11-15T15:59:37;23.00;1.00
20463;DHT22;10390;53.566;9.980;2022-11-15T16:02:03;23.10;1.00
20463;DHT22;10390;53.566;9.980;2022-11-15T16:04:31;23.10;1.00
20463;DHT22;10390;53.566;9.980;2022-11-15T16:07:00;23.20;1.00
20463;DHT22;10390;53.566;9.980;2022-11-15T16:09:27;23.20;1.00
20463;DHT22;10390;53.566;9.980;2022-11-15T16:12:11;23.20;1.00
20463;DHT22;10390;53.566;9.980;2022-11-15T16:14:37;23.20;1.00
20463;DHT22;10390;53.566;9.980;2022-11-15T16:17:03;23.20;1.00
20463;DHT22;10390;53.566;9.980;2022-11-15T16:19:29;23.20;1.00
20463;DHT22;10390;53.566;9.980;2022-11-15T16:21:55;23.20;1.00
20463;DHT22;10390;53.566;9.980;2022-11-15T16:24:21;23.20;1.00
20463;DHT22;10390;53.566;9.980;2022-11-15T16:26:47;23.20;1.00
20463;DHT22;10390;53.566;9.980;2022-11-15T16:29:14;23.10;1.00
20463;DHT22;10390;53.566;9.980;2022-11-15T16:31:39;23.00;1.00
20463;DHT22;10390;53.566;9.980;2022-11-15T16:34:05;23.00;1.00
20463;DHT22;10390;53.566;9.980;2022-11-15T16:36:33;23.00;1.00
20463;DHT22;10390;53.566;9.980;2022-11-15T16:39:00;22.90;1.00
20463;DHT22;10390;53.566;9.980;2022-11-15T16:41:29;22.90;1.00
20463;DHT22;10390;53.566;9.980;2022-11-15T16:43:56;22.90;1.00
20463;DHT22;10390;53.566;9.980;2022-11-15T16:46:24;22.90;1.00
20463;DHT22;10390;53.566;9.980;2022-11-15T16:48:52;22.80;1.00
20463;DHT22;10390;53.566;9.980;2022-11-15T16:51:22;22.80;1.00
20463;DHT22;10390;53.566;9.980;2022-11-15T16:53:48;22.80;1.00
20463;DHT22;10390;53.566;9.980;2022-11-15T16:56:27;22.70;1.00
20463;DHT22;10390;53.566;9.980;2022-11-15T16:58:55;22.70;1.00
20463;DHT22;10390;53.566;9.980;2022-11-15T17:01:42;22.70;1.00
20463;DHT22;10390;53.566;9.980;2022-11-15T17:04:18;22.60;1.00
20463;DHT22;10390;53.566;9.980;2022-11-15T17:06:47;22.50;1.00
20463;DHT22;10390;53.566;9.980;2022-11-15T17:09:18;22.50;1.00
20463;DHT22;10390;53.566;9.980;2022-11-15T17:11:48;22.50;1.00
20463;DHT22;10390;53.566;9.980;2022-11-15T17:14:13;22.50;1.00
20463;DHT22;10390;53.566;9.980;2022-11-15T17:16:40;22.50;1.00
20463;DHT22;10390;53.566;9.980;2022-11-15T17:19:18;22.40;1.00
20463;DHT22;10390;53.566;9.980;2022-11-15T17:21:46;22.30;1.00
20463;DHT22;10390;53.566;9.980;2022-11-15T17:24:14;22.30;1.00
20463;DHT22;10390;53.566;9.980;2022-11-15T17:26:40;22.20;1.00
20463;DHT22;10390;53.566;9.980;2022-11-15T17:29:07;22.20;1.00
20463;DHT22;10390;53.566;9.980;2022-11-15T17:31:34;22.10;1.00
20463;DHT22;10390;53.566;9.980;2022-11-15T17:34:02;22.10;1.00
20463;DHT22;10390;53.566;9.980;2022-11-15T17:36:28;22.00;1.00
20463;DHT22;10390;53.566;9.980;2022-11-15T17:38:54;22.00;1.00
20463;DHT22;10390;53.566;9.980;2022-11-15T17:41:20;22.00;1.00
20463;DHT22;10390;53.566;9.980;2022-11-15T17:43:46;21.90;1.00
20463;DHT22;10390;53.566;9.980;2022-11-15T17:46:15;21.90;1.00
20463;DHT22;10390;53.566;9.980;2022-11-15T17:48:42;21.90;1.00
20463;DHT22;10390;53.566;9.980;2022-11-15T17:51:13;21.80;1.00
20463;DHT22;10390;53.566;9.980;2022-11-15T17:53:42;21.80;1.00
20463;DHT22;10390;53.566;9.980;2022-11-15T17:56:12;21.70;1.00
20463;DHT22;10390;53.566;9.980;2022-11-15T17:58:40;21.70;1.00
20463;DHT22;10390;53.566;9.980;2022-11-15T18:03:40;21.60;1.00
20463;DHT22;10390;53.566;9.980;2022-11-15T18:06:07;21.60;1.00
20463;DHT22;10390;53.566;9.980;2022-11-15T18:08:38;21.60;1.00
20463;DHT22;10390;53.566;9.980;2022-11-15T18:11:08;21.60;1.00
20463;DHT22;10390;53.566;9.980;2022-11-15T18:13:36;21.50;1.00
20463;DHT22;10390;53.566;9.980;2022-11-15T18:16:04;21.50;1.00
20463;DHT22;10390;53.566;9.980;2022-11-15T18:18:33;21.50;1.00
20463;DHT22;10390;53.566;9.980;2022-11-15T18:21:04;21.50;1.00
20463;DHT22;10390;53.566;9.980;2022-11-15T18:23:31;21.50;1.00
20463;DHT22;10390;53.566;9.980;2022-11-15T18:25:58;21.50;1.00
20463;DHT22;10390;53.566;9.980;2022-11-15T18:28:29;21.60;1.00
20463;DHT22;10390;53.566;9.980;2022-11-15T18:30:57;21.50;1.00
20463;DHT22;10390;53.566;9.980;2022-11-15T18:33:23;21.60;1.00
20463;DHT22;10390;53.566;9.980;2022-11-15T18:35:49;21.50;1.00
20463;DHT22;10390;53.566;9.980;2022-11-15T18:38:15;21.60;1.00
20463;DHT22;10390;53.566;9.980;2022-11-15T18:40:41;21.60;1.00
20463;DHT22;10390;53.566;9.980;2022-11-15T18:43:06;21.60;1.00
20463;DHT22;10390;53.566;9.980;2022-11-15T18:45:35;21.60;1.00